Terminal Aerodrome Forecast
Issued by NWS Portland, ME

Home | Current Version | Previous Version | Text Only | Print | Product List | Glossary On
Versions: 1 2 3 4 5 6 7 8 9 10 11 12 13 14 15 16 17 18 19 20 21
000
FTUS41 KGYX 292320
TAFPWM
TAF
KPWM 292320Z 3000/3024 19005KT P6SM SCT080 BKN200
     FM300300 00000KT 2SM BR OVC050
     FM300600 00000KT P6SM OVC050
     FM300900 00000KT P6SM OVC100
     FM301200 14004KT P6SM OVC250=

USA.gov is the U.S. government's official web portal to all federal, state and local government web resources and services.